McBride, Missouri
Current Conditions -  °F | °C
As of 10:15 AM on Thursday 29 Jan 2015 (Local Time) from KSAR Reporting Station
Overcast Overcast  
Wind Chill: 32°   Ceiling: 2500
Heat Index: 40°   Visibility: 10mi
Dew Point: 31°   Wind: 13mph
Humidity: 72%   Direction: 300°WNW
Pressure: 30.12"   Gusts: 22mph
Location:  37.83°N, 89.84°W
Report Text: KSAR 291615Z AUTO 30011G19KT 10SM OVC025 04/00 A3012 RMK AO2 T00421004
Loading
Personal Weather Stations






























Interactive Weather Map New forecast layout! Learn more

10-Day Weather Forecast

Advertisements
Track Severe Weather on mobile